Time;durP1;ratioP1;P1;durP2;ratioP2;P2;SDS_P1;SDS_P2;PMS_P1;PMS_P2;Temp;Humidity;BMP_temperature;BMP_pressure;BME280_temperature;BME280_humidity;BME280_pressure;Samples;Min_cycle;Max_cycle;Signal;HPM_P1;HPM_P2
2022/11/17 00:00:26;;;;;;;;;1.00;1.00;;;;;18.62;49.20;98131.06;5072932;28;45342;-57
2022/11/17 00:02:51;;;;;;;;;2.25;0.50;;;;;18.63;49.53;98125.66;5059587;28;45421;-57
2022/11/17 00:05:17;;;;;;;;;1.75;0.75;;;;;18.62;49.58;98118.78;5059609;28;45534;-57
2022/11/17 00:07:47;;;;;;;;;1.00;1.00;;;;;18.65;49.65;98117.69;5058926;28;46091;-56
2022/11/17 00:10:13;;;;;;;;;2.00;2.00;;;;;18.65;49.66;98128.16;5059119;28;45230;-57
2022/11/17 00:15:22;;;;;;;;;1.00;1.00;;;;;18.64;49.71;98118.63;5059164;28;45219;-59
2022/11/17 00:17:48;;;;;;;;;5.25;1.25;;;;;18.63;49.85;98117.78;5059046;28;45391;-56
2022/11/17 00:23:00;;;;;;;;;1.75;1.75;;;;;18.63;49.26;98125.66;5022077;28;45386;-57
2022/11/17 00:25:25;;;;;;;;;1.67;1.67;;;;;18.61;49.04;98127.63;5079187;28;52002;-57
2022/11/17 00:27:50;;;;;;;;;2.00;2.00;;;;;18.64;49.63;98139.63;5067329;28;46282;-56
2022/11/17 00:35:53;;;;;;;;;3.00;1.00;;;;;18.64;49.25;98148.31;5080200;28;45224;-58
2022/11/17 00:38:18;;;;;;;;;4.75;2.00;;;;;18.63;49.60;98149.28;5082116;28;45307;-58
2022/11/17 00:40:44;;;;;;;;;2.25;1.25;;;;;18.61;49.34;98140.75;5059569;28;45224;-57
2022/11/17 00:43:09;;;;;;;;;2.00;2.00;;;;;18.65;49.45;98143.91;5059078;28;45508;-56
2022/11/17 00:45:35;;;;;;;;;2.00;2.00;;;;;18.63;49.32;98162.41;5059317;28;45520;-56
2022/11/17 00:48:00;;;;;;;;;2.50;1.00;;;;;18.64;49.23;98150.13;5072438;28;45260;-56
2022/11/17 00:50:25;;;;;;;;;5.00;2.00;;;;;18.64;49.46;98150.13;5077384;28;57861;-58
2022/11/17 00:52:51;;;;;;;;;1.00;1.00;;;;;18.65;49.05;98139.47;5061328;28;58628;-55
2022/11/17 00:55:16;;;;;;;;;2.50;2.00;;;;;18.65;49.09;98138.66;5064416;28;45574;-57
2022/11/17 00:57:41;;;;;;;;;3.50;1.50;;;;;18.65;49.39;98149.16;5058000;28;61629;-57
2022/11/17 01:00:07;;;;;;;;;4.00;2.00;;;;;18.65;49.16;98144.72;5063325;28;62600;-56
2022/11/17 01:02:33;;;;;;;;;2.25;1.25;;;;;18.66;49.25;98150.81;5084378;28;44730;-56
2022/11/17 01:04:58;;;;;;;;;1.50;1.50;;;;;18.65;49.29;98146.53;5085545;28;44840;-57
2022/11/17 01:07:23;;;;;;;;;3.00;2.33;;;;;18.64;49.54;98144.88;5075480;28;54638;-56
2022/11/17 01:09:49;;;;;;;;;3.75;1.00;;;;;18.66;49.49;98140.31;5068527;28;45322;-60
2022/11/17 01:12:14;;;;;;;;;3.25;1.25;;;;;18.66;49.17;98145.56;5068137;28;45387;-57
2022/11/17 01:14:39;;;;;;;;;5.00;2.00;;;;;18.63;49.13;98137.97;5065185;28;53324;-56
2022/11/17 01:17:04;;;;;;;;;2.00;2.00;;;;;18.64;49.11;98158.81;5063278;28;45445;-56
2022/11/17 01:19:30;;;;;;;;;4.75;2.00;;;;;18.65;49.36;98141.28;5058320;28;48312;-54
2022/11/17 01:21:55;;;;;;;;;2.75;2.00;;;;;18.66;49.46;98156.06;5058222;28;45237;-56
2022/11/17 01:24:20;;;;;;;;;4.67;3.00;;;;;18.64;49.32;98148.31;5060210;28;47675;-55
2022/11/17 01:26:46;;;;;;;;;2.50;2.00;;;;;18.64;49.13;98165.88;5058949;28;45277;-54
2022/11/17 01:29:14;;;;;;;;;2.00;2.00;;;;;18.64;49.34;98165.88;5071650;28;45244;-55
2022/11/17 01:31:42;;;;;;;;;3.00;1.00;;;;;18.66;49.49;98183.13;5079347;28;45325;-55
2022/11/17 01:34:08;;;;;;;;;2.00;2.00;;;;;18.66;49.28;98177.06;5062513;28;45318;-56
2022/11/17 01:39:22;;;;;;;;;2.00;2.00;;;;;18.66;49.31;98203.28;5058423;28;45807;-57
2022/11/17 01:41:47;;;;;;;;;4.00;3.00;;;;;18.65;49.28;98204.25;5057763;28;45380;-57
2022/11/17 01:44:34;;;;;;;;;5.00;2.25;;;;;18.67;49.43;98183.97;5057631;28;45298;-57
2022/11/17 01:47:01;;;;;;;;;2.50;1.00;;;;;18.65;49.01;98210.31;5067424;28;45568;-54
2022/11/17 01:49:28;;;;;;;;;3.25;1.50;;;;;18.66;49.37;98214.59;5085200;28;44952;-54
2022/11/17 01:52:00;;;;;;;;;5.25;2.00;;;;;18.66;49.39;98219.03;5060370;28;45375;-56
2022/11/17 01:54:29;;;;;;;;;4.75;1.00;;;;;18.67;49.37;98210.19;5058051;28;45454;-55
2022/11/17 01:57:00;;;;;;;;;1.00;1.00;;;;;18.67;49.34;98220.69;5061992;28;46369;-55
2022/11/17 01:59:34;;;;;;;;;3.00;1.00;;;;;18.67;49.25;98225.94;5059527;28;45520;-55
2022/11/17 02:02:00;;;;;;;;;2.50;1.00;;;;;18.67;48.99;98225.94;5057601;28;45385;-53
2022/11/17 02:04:32;;;;;;;;;2.00;1.25;;;;;18.65;48.97;98212.94;5057428;28;45581;-55
2022/11/17 02:07:15;;;;;;;;;1.00;1.00;;;;;18.68;48.90;98222.34;5057030;28;47535;-56
2022/11/17 02:09:42;;;;;;;;;1.00;1.00;;;;;18.65;48.89;98246.22;5058196;28;45172;-56
2022/11/17 02:12:11;;;;;;;;;3.25;1.75;;;;;18.67;49.38;98244.31;5060772;28;45278;-56
2022/11/17 02:14:38;;;;;;;;;1.50;1.50;;;;;18.67;49.29;98233.81;5063299;28;45452;-56
2022/11/17 02:17:04;;;;;;;;;2.50;1.50;;;;;18.67;48.85;98237.25;5067134;28;46670;-55
2022/11/17 02:19:36;;;;;;;;;0.00;0.00;;;;;18.67;48.92;98253.00;5068087;28;45720;-56
2022/11/17 02:22:38;;;;;;;;;3.50;0.75;;;;;18.68;49.13;98243.34;5066232;28;45395;-55
2022/11/17 02:25:22;;;;;;;;;2.00;2.00;;;;;18.67;49.13;98249.56;5060930;28;45165;-56
2022/11/17 02:27:53;;;;;;;;;2.00;1.00;;;;;18.66;49.30;98234.78;5063381;28;47361;-55
2022/11/17 02:30:21;;;;;;;;;2.00;2.00;;;;;18.67;49.22;98246.94;5076321;28;45393;-56
2022/11/17 02:33:05;;;;;;;;;2.00;1.00;;;;;18.67;48.97;98245.13;5080749;28;45304;-56
2022/11/17 02:35:44;;;;;;;;;4.00;1.50;;;;;18.65;48.87;98243.59;5064924;28;45180;-56
2022/11/17 02:38:33;;;;;;;;;3.75;0.25;;;;;18.67;48.88;98241.69;5059456;28;46320;-56
2022/11/17 02:41:33;;;;;;;;;1.00;1.00;;;;;18.64;48.55;98253.25;5056938;28;45382;-56
2022/11/17 02:44:11;;;;;;;;;1.00;0.25;;;;;18.64;49.18;98252.44;5065185;28;44642;-57
2022/11/17 02:47:07;;;;;;;;;2.00;0.00;;;;;18.66;48.96;98261.81;5063654;28;45342;-61
2022/11/17 02:49:40;;;;;;;;;2.00;0.00;;;;;18.67;49.01;98260.03;5057195;28;46705;-56
2022/11/17 02:52:07;;;;;;;;;3.75;1.25;;;;;18.65;49.09;98264.59;5056851;28;45827;-57
2022/11/17 02:54:32;;;;;;;;;0.75;0.75;;;;;18.65;48.48;98269.84;5057308;28;45342;-57
2022/11/17 02:56:58;;;;;;;;;0.50;0.50;;;;;18.66;49.04;98282.81;5058190;28;45600;-56
2022/11/17 02:59:46;;;;;;;;;2.00;0.75;;;;;18.66;49.03;98276.75;5058139;28;46877;-56
2022/11/17 03:02:17;;;;;;;;;1.00;1.00;;;;;18.67;49.21;98278.41;5068757;28;45177;-56
2022/11/17 03:04:42;;;;;;;;;2.00;1.00;;;;;18.65;48.70;98269.84;5069121;28;45303;-56
2022/11/17 03:07:37;;;;;;;;;2.00;0.67;;;;;18.67;48.93;98281.03;5070707;28;45528;-56
2022/11/17 03:10:28;;;;;;;;;0.00;0.00;;;;;18.66;48.59;98287.25;5060694;28;45432;-56
2022/11/17 03:13:01;;;;;;;;;2.50;0.00;;;;;18.67;48.54;98294.97;5071005;28;45235;-56
2022/11/17 03:15:44;;;;;;;;;1.00;1.00;;;;;18.66;48.76;98309.03;5070865;28;44723;-57
2022/11/17 03:18:20;;;;;;;;;1.00;1.00;;;;;18.67;48.72;98315.97;5063681;28;45406;-55
2022/11/17 03:21:06;;;;;;;;;1.75;0.00;;;;;18.67;48.53;98315.97;5059912;28;45323;-55
2022/11/17 03:23:45;;;;;;;;;1.00;0.50;;;;;18.66;49.07;98319.53;5068290;28;45445;-55
2022/11/17 03:26:15;;;;;;;;;1.75;0.00;;;;;18.67;48.94;98326.44;5076171;28;45249;-57
2022/11/17 03:28:44;;;;;;;;;1.00;1.00;;;;;18.67;48.79;98344.00;5057628;28;45517;-57
2022/11/17 03:31:12;;;;;;;;;0.00;0.00;;;;;18.66;48.41;98342.34;5056746;28;45403;-57
2022/11/17 03:33:40;;;;;;;;;0.50;0.50;;;;;18.68;48.83;98364.03;5058773;28;45591;-57
2022/11/17 03:36:07;;;;;;;;;1.00;0.25;;;;;18.66;48.60;98363.31;5057688;28;45404;-57
2022/11/17 03:38:39;;;;;;;;;1.00;0.75;;;;;18.66;48.55;98356.28;5072997;28;45286;-56
2022/11/17 03:41:07;;;;;;;;;0.00;0.00;;;;;18.67;49.02;98365.00;5073857;28;46163;-57
2022/11/17 03:43:34;;;;;;;;;0.00;0.00;;;;;18.67;48.61;98372.88;5056326;28;45351;-59
2022/11/17 03:46:08;;;;;;;;;0.75;0.75;;;;;18.67;48.48;98388.59;5056415;28;45413;-57
2022/11/17 03:48:44;;;;;;;;;4.00;0.25;;;;;18.67;48.66;98376.31;5056139;28;45421;-57
2022/11/17 03:51:14;;;;;;;;;0.00;0.00;;;;;18.68;48.43;98391.09;5055541;28;46626;-57
2022/11/17 03:53:41;;;;;;;;;1.25;1.00;;;;;18.67;48.53;98386.78;5055672;28;45362;-58
2022/11/17 03:56:09;;;;;;;;;0.75;0.00;;;;;18.67;48.55;98396.47;5055736;28;45342;-58
2022/11/17 03:58:43;;;;;;;;;0.50;0.00;;;;;18.67;48.71;98399.91;5055981;28;45276;-57
2022/11/17 04:01:08;;;;;;;;;0.25;0.25;;;;;18.67;48.46;98415.66;5056082;28;45316;-56
2022/11/17 04:03:34;;;;;;;;;2.00;1.00;;;;;18.67;48.39;98426.16;5061205;28;45148;-56
2022/11/17 04:06:00;;;;;;;;;0.25;0.25;;;;;18.65;48.62;98428.06;5064878;28;45205;-57
2022/11/17 04:08:29;;;;;;;;;2.25;1.00;;;;;18.67;48.65;98433.22;5060445;28;45422;-57
2022/11/17 04:16:23;;;;;;;;;0.75;0.00;;;;;18.67;48.92;98448.94;5058958;28;45375;-57
2022/11/17 04:18:48;;;;;;;;;1.00;0.00;;;;;18.66;48.32;98444.66;5059171;28;45421;-57
2022/11/17 04:21:14;;;;;;;;;0.00;0.00;;;;;18.67;48.85;98448.94;5059710;28;46122;-57
2022/11/17 04:23:39;;;;;;;;;2.00;0.00;;;;;18.68;48.55;98458.47;5074243;28;45280;-57
2022/11/17 04:28:49;;;;;;;;;1.00;1.00;;;;;18.67;48.86;98468.13;5058118;28;45451;-57
2022/11/17 04:31:19;;;;;;;;;0.00;0.00;;;;;18.68;48.24;98453.25;5058522;28;46087;-58
2022/11/17 04:33:46;;;;;;;;;0.00;0.00;;;;;18.67;48.31;98452.38;5063258;28;45322;-57
2022/11/17 04:36:13;;;;;;;;;2.00;0.00;;;;;18.66;48.46;98469.09;5061829;28;45311;-57
2022/11/17 04:38:43;;;;;;;;;0.00;0.00;;;;;18.68;48.10;98484.72;5064063;28;45421;-57
2022/11/17 04:43:54;;;;;;;;;1.50;0.00;;;;;18.68;48.43;98484.72;5059151;28;45732;-56
2022/11/17 04:46:21;;;;;;;;;0.25;0.00;;;;;18.68;48.27;98495.22;5065881;28;45287;-54
2022/11/17 04:48:47;;;;;;;;;0.00;0.00;;;;;18.66;48.56;98489.25;5065081;28;45453;-57
2022/11/17 04:51:13;;;;;;;;;2.75;0.00;;;;;18.67;48.36;98504.88;5064037;28;46334;-56
2022/11/17 04:53:39;;;;;;;;;0.00;0.00;;;;;18.66;48.24;98499.75;5059368;28;45358;-56
2022/11/17 04:56:05;;;;;;;;;2.25;0.00;;;;;18.68;48.41;98505.72;5076142;28;45246;-57
2022/11/17 04:58:30;;;;;;;;;0.25;0.00;;;;;18.67;48.40;98514.53;5074686;28;45204;-57
2022/11/17 05:01:11;;;;;;;;;1.75;0.00;;;;;18.66;48.53;98515.50;5058621;28;46993;-57
2022/11/17 05:03:37;;;;;;;;;1.50;0.00;;;;;18.67;48.36;98519.78;5059957;28;45747;-57
2022/11/17 05:06:02;;;;;;;;;0.00;0.00;;;;;18.65;48.22;98517.28;5062253;28;45345;-56
2022/11/17 05:08:28;;;;;;;;;0.00;0.00;;;;;18.67;48.18;98525.84;5066792;28;45309;-57
2022/11/17 05:13:40;;;;;;;;;0.00;0.00;;;;;18.67;48.16;98522.41;5076680;28;45231;-56
2022/11/17 05:18:50;;;;;;;;;0.25;0.25;;;;;18.67;48.13;98541.59;5066063;28;45320;-57
2022/11/17 05:21:15;;;;;;;;;0.00;0.00;;;;;18.66;48.26;98547.81;5058072;28;63757;-57
2022/11/17 05:23:52;;;;;;;;;1.50;0.00;;;;;18.67;48.48;98548.66;5059821;28;45299;-56
2022/11/17 05:26:23;;;;;;;;;0.00;0.00;;;;;18.67;48.12;98553.91;5059016;28;45254;-56
2022/11/17 05:28:49;;;;;;;;;0.00;0.00;;;;;18.66;48.34;98557.47;5058287;28;45451;-56
2022/11/17 05:31:14;;;;;;;;;0.00;0.00;;;;;18.65;48.12;98555.81;5068545;28;46439;-57
2022/11/17 05:33:40;;;;;;;;;0.00;0.00;;;;;18.67;48.23;98557.34;5072984;28;44786;-57
2022/11/17 05:36:06;;;;;;;;;0.75;0.00;;;;;18.63;48.36;98549.84;5065313;28;45382;-55
2022/11/17 05:38:32;;;;;;;;;0.00;0.00;;;;;18.65;48.15;98558.44;5060301;28;45264;-57
2022/11/17 05:40:57;;;;;;;;;0.25;0.25;;;;;18.66;48.11;98552.22;5062659;28;45436;-56
2022/11/17 05:43:23;;;;;;;;;0.00;0.00;;;;;18.66;48.32;98562.72;5058514;28;45469;-57
2022/11/17 05:45:48;;;;;;;;;0.00;0.00;;;;;18.66;48.42;98573.22;5058157;28;45446;-56
2022/11/17 05:48:14;;;;;;;;;0.00;0.00;;;;;18.66;48.12;98587.16;5057472;28;53678;-56
2022/11/17 05:50:39;;;;;;;;;0.00;0.00;;;;;18.67;48.50;98575.72;5057783;28;45854;-57
2022/11/17 05:53:05;;;;;;;;;0.00;0.00;;;;;18.66;47.98;98568.78;5058012;28;45244;-57
2022/11/17 05:55:30;;;;;;;;;0.00;0.00;;;;;18.65;48.11;98563.69;5057752;28;45366;-57
2022/11/17 05:58:00;;;;;;;;;0.00;0.00;;;;;18.64;48.15;98577.75;5057588;28;45342;-57
2022/11/17 06:00:27;;;;;;;;;0.00;0.00;;;;;18.65;48.06;98584.69;5057092;28;46372;-57
2022/11/17 06:02:57;;;;;;;;;0.00;0.00;;;;;18.67;48.03;98582.75;5057198;28;45178;-56
2022/11/17 06:05:22;;;;;;;;;2.25;0.00;;;;;18.67;48.44;98593.25;5057184;28;45258;-57
2022/11/17 06:07:50;;;;;;;;;0.00;0.00;;;;;18.67;48.55;98606.38;5057607;28;45584;-55
2022/11/17 06:10:15;;;;;;;;;0.00;0.00;;;;;18.64;48.12;98598.75;5058479;28;46424;-57
2022/11/17 06:12:40;;;;;;;;;2.00;0.00;;;;;18.66;48.47;98602.09;5060735;28;45383;-55
2022/11/17 06:15:06;;;;;;;;;0.00;0.00;;;;;18.66;48.25;98612.56;5058403;28;46278;-54
2022/11/17 06:17:42;;;;;;;;;0.00;0.00;;;;;18.66;48.11;98616.03;5057286;28;45572;-56
2022/11/17 06:20:31;;;;;;;;;0.00;0.00;;;;;18.64;47.92;98610.06;5057762;28;47352;-55
2022/11/17 06:22:59;;;;;;;;;0.75;0.00;;;;;18.65;48.01;98603.03;5059615;28;45455;-56
2022/11/17 06:25:26;;;;;;;;;0.00;0.00;;;;;18.66;47.88;98607.34;5060237;28;45264;-56
2022/11/17 06:27:53;;;;;;;;;0.00;0.00;;;;;18.66;48.47;98605.53;5080170;28;44809;-55
2022/11/17 06:30:18;;;;;;;;;0.00;0.00;;;;;18.65;48.52;98606.47;5084239;28;45168;-56
2022/11/17 06:32:45;;;;;;;;;0.00;0.00;;;;;18.65;48.22;98605.66;5084762;28;44642;-56
2022/11/17 06:35:12;;;;;;;;;0.00;0.00;;;;;18.64;48.24;98610.06;5084397;28;44769;-57
2022/11/17 06:37:37;;;;;;;;;0.25;0.00;;;;;18.63;47.88;98607.56;5081057;28;44796;-58
2022/11/17 06:40:03;;;;;;;;;1.00;0.00;;;;;18.66;48.08;98607.34;5073540;28;45460;-57
2022/11/17 06:45:13;;;;;;;;;2.00;0.00;;;;;18.65;48.00;98610.91;5057558;28;45390;-55
2022/11/17 06:47:38;;;;;;;;;0.00;0.00;;;;;18.64;48.07;98614.50;5057390;28;45525;-57
2022/11/17 06:50:04;;;;;;;;;0.00;0.00;;;;;18.64;48.06;98617.13;5056546;28;46129;-55
2022/11/17 06:52:29;;;;;;;;;0.00;0.00;;;;;18.66;48.13;98623.06;5056772;28;45333;-55
2022/11/17 06:54:55;;;;;;;;;0.00;0.00;;;;;18.65;48.34;98608.28;5056843;28;45301;-56
2022/11/17 06:57:20;;;;;;;;;2.00;0.00;;;;;18.64;47.78;98614.50;5057981;28;49009;-56
2022/11/17 06:59:46;;;;;;;;;0.00;0.00;;;;;18.65;48.03;98621.41;5059005;28;45497;-57
2022/11/17 07:02:11;;;;;;;;;0.00;0.00;;;;;18.63;47.73;98624.13;5059044;28;45349;-57
2022/11/17 07:04:36;;;;;;;;;0.00;0.00;;;;;18.65;48.05;98624.03;5071471;28;51271;-57
2022/11/17 07:07:02;;;;;;;;;1.00;0.00;;;;;18.64;48.05;98631.06;5078458;28;44808;-56
2022/11/17 07:09:27;;;;;;;;;0.00;0.00;;;;;18.65;47.66;98626.66;5071919;28;45917;-57
2022/11/17 07:11:52;;;;;;;;;0.33;0.00;;;;;18.64;47.70;98635.47;5059241;28;57401;-58
2022/11/17 07:14:18;;;;;;;;;1.67;0.00;;;;;18.65;47.72;98642.41;5055479;28;58792;-58
2022/11/17 07:16:43;;;;;;;;;0.00;0.00;;;;;18.63;47.78;98636.44;5057934;28;45570;-56
2022/11/17 07:19:10;;;;;;;;;0.00;0.00;;;;;18.64;47.73;98641.53;5067311;28;45478;-57
2022/11/17 07:21:35;;;;;;;;;1.00;1.00;;;;;18.64;47.43;98640.72;5075850;28;45133;-56
2022/11/17 07:24:02;;;;;;;;;1.00;0.00;;;;;18.64;48.07;98640.72;5065834;28;45027;-58
2022/11/17 07:26:27;;;;;;;;;0.00;0.00;;;;;18.64;48.09;98656.47;5058502;28;45314;-57
2022/11/17 07:28:53;;;;;;;;;0.00;0.00;;;;;18.63;47.65;98654.81;5056997;28;45369;-57
2022/11/17 07:31:18;;;;;;;;;1.50;0.75;;;;;18.63;47.92;98655.63;5056824;28;45339;-57
2022/11/17 07:33:44;;;;;;;;;1.00;0.00;;;;;18.62;48.09;98653.97;5056960;28;45439;-60
2022/11/17 07:36:13;;;;;;;;;0.00;0.00;;;;;18.64;47.46;98656.47;5067511;28;45666;-57
2022/11/17 07:38:39;;;;;;;;;0.00;0.00;;;;;18.64;47.90;98656.47;5077448;28;47354;-57
2022/11/17 07:41:04;;;;;;;;;0.00;0.00;;;;;18.63;47.59;98660.06;5061338;28;45386;-57
2022/11/17 07:43:30;;;;;;;;;0.00;0.00;;;;;18.63;47.54;98674.00;5060247;28;45227;-57
2022/11/17 07:45:55;;;;;;;;;0.50;0.50;;;;;18.64;47.82;98670.41;5060249;28;45608;-56
2022/11/17 07:48:21;;;;;;;;;0.00;0.00;;;;;18.65;47.85;98679.13;5060601;28;47246;-57
2022/11/17 07:50:47;;;;;;;;;0.00;0.00;;;;;18.64;47.90;98680.09;5061513;28;45381;-56
2022/11/17 07:53:12;;;;;;;;;2.25;0.00;;;;;18.63;47.87;98681.03;5060359;28;45334;-57
2022/11/17 07:55:38;;;;;;;;;0.00;0.00;;;;;18.65;47.59;98684.38;5061016;28;45254;-56
2022/11/17 07:58:03;;;;;;;;;1.00;0.00;;;;;18.63;47.93;98696.78;5069259;28;46384;-58
2022/11/17 08:00:30;;;;;;;;;0.50;0.00;;;;;18.64;47.54;98691.41;5069313;28;45453;-56
2022/11/17 08:03:02;;;;;;;;;0.50;0.00;;;;;18.64;47.86;98696.66;5059082;28;45328;-57
2022/11/17 08:05:29;;;;;;;;;0.00;0.00;;;;;18.64;47.55;98698.44;5059553;28;45407;-57
2022/11/17 08:07:56;;;;;;;;;0.75;0.00;;;;;18.64;47.64;98694.03;5059590;28;46306;-57
2022/11/17 08:10:22;;;;;;;;;0.75;0.00;;;;;18.64;47.75;98704.50;5065129;28;45327;-57
2022/11/17 08:12:51;;;;;;;;;0.00;0.00;;;;;18.64;47.39;98703.69;5065660;28;45296;-57
2022/11/17 08:15:16;;;;;;;;;0.00;0.00;;;;;18.65;48.05;98700.13;5066749;28;45377;-57
2022/11/17 08:17:42;;;;;;;;;0.25;0.00;;;;;18.62;47.84;98698.59;5063228;28;46005;-56
2022/11/17 08:20:08;;;;;;;;;0.00;0.00;;;;;18.63;47.65;98700.22;5063133;28;45426;-57
2022/11/17 08:22:33;;;;;;;;;1.00;0.00;;;;;18.64;47.46;98704.50;5060527;28;45294;-57
2022/11/17 08:24:58;;;;;;;;;0.00;0.00;;;;;18.64;47.69;98706.31;5060027;28;45385;-57
2022/11/17 08:27:24;;;;;;;;;0.25;0.00;;;;;18.63;47.65;98704.66;5059320;28;45647;-58
2022/11/17 08:29:49;;;;;;;;;0.00;0.00;;;;;18.63;47.57;98691.53;5059942;28;45471;-59
2022/11/17 08:32:15;;;;;;;;;0.00;0.00;;;;;18.63;47.78;98691.53;5058600;28;62509;-58
